This is the latest recevied weather packets stored in our database for station/object KF0PEC-15. If no packets are shown the sender has not sent any weather packets the latest 10 day(s).
| Time | Temp. | Humidity | Pressure | Rain* | Wind** | Luminosity | Snow |
|---|---|---|---|---|---|---|---|
| 1777085709 | 11.67° C | 20% | 1005 hPa | 0 mm | - | 0 W/m² | - |
| 1777085205 | 12.22° C | 20% | 1004.7 hPa | 0 mm | - | 0 W/m² | - |
| 1777084625 | 12.78° C | 20% | 1004.3 hPa | 0 mm | - | 0 W/m² | - |
| 1777084035 | 13.33° C | 19% | 1003.6 hPa | 0 mm | - | 0 W/m² | - |
| 1777083455 | 13.89° C | 18% | 1003.1 hPa | 0 mm | - | 0 W/m² | - |
| 1777082855 | 14.44° C | 17% | 1002.4 hPa | 0 mm | - | 4 W/m² | - |
| 1777082290 | 15° C | 16% | 1001.6 hPa | 0 mm | - | 60 W/m² | - |
| 1777081795 | 16.11° C | 15% | 1001.1 hPa | 0 mm | - | 238 W/m² | - |
| 1777081309 | 16.11° C | 15% | 1000.8 hPa | 0 mm | - | 413 W/m² | - |
| 1777080789 | 16.67° C | 14% | 1000.2 hPa | 0 mm | - | 619 W/m² | - |
| 1777080200 | 17.22° C | 13% | 999.8 hPa | 0 mm | - | 110 W/m² | - |
| 1777079709 | 17.78° C | 13% | 999.7 hPa | 0 mm | - | 229 W/m² | - |
| 1777079180 | 17.78° C | 13% | 999.6 hPa | 0 mm | - | 214 W/m² | - |
| 1777078650 | 18.33° C | 13% | 999.3 hPa | 0 mm | - | 296 W/m² | - |
| 1777078085 | 18.33° C | 12% | 999.1 hPa | 0 mm | - | 455 W/m² | - |
| 1777077571 | 18.89° C | 12% | 998.9 hPa | 0 mm | - | 544 W/m² | - |
| 1777077045 | 18.89° C | 12% | 998.8 hPa | 0 mm | - | 552 W/m² | - |
| 1777076515 | 18.89° C | 12% | 998.5 hPa | 0 mm | - | 750 W/m² | - |
| 1777076020 | 19.44° C | 11% | 998.4 hPa | 0 mm | - | 782 W/m² | - |
| 1777075505 | 19.44° C | 11% | 998.2 hPa | 0 mm | - | 920 W/m² | - |
| 1777074945 | 19.44° C | 11% | 998.1 hPa | 0 mm | - | 932 W/m² | - |
| 1777074420 | 19.44° C | 10% | 997.9 hPa | 0 mm | - | 976 W/m² | - |
| 1777073840 | 20° C | 10% | 997.7 hPa | 0 mm | - | 897 W/m² | - |
| 1777073289 | 20° C | 10% | 997.5 hPa | 0 mm | - | 732 W/m² | - |
| 1777072780 | 20.56° C | 10% | 996.9 hPa | 0 mm | - | 616 W/m² | - |
* Rain latest hour (hover to see other rain measurements)
** Current wind speed in m/s (hover to see current wind gust speed)